Colorado Springs, CO (80916)

5:54 AM MDT on September 03, 2015 (GMT -0600)
Barnstormers Landing | | Change Station
CLOSE
Current Station
Personal Weather Station
Location: Colorado Springs, CO
Elevation: 5991 ft
Nearby Weather Stations

Elev 5991 ft 38.78 °N, 104.73 °W | Updated 5 seconds ago

Scattered Clouds
Scattered Clouds
68.2 °F
Feels Like 68.2 °F
N
4.9
Wind Variable Wind from NNE
Gusts 7.6 mph

Today
High -- | Low -- °F
--% Chance of Precip.
Yesterday
High -- | Low -- °F
Precip. -- in
6:29 AM 7:26 PM
Waning Gibbous, 71% visible
Pressure 29.79 in
Visibility 10.0 miles
Clouds Scattered Clouds 14000 ft
Scattered Clouds 20000 ft
Dew Point 44 °F
Humidity 41%
Rainfall 0.00 in
Snow Depth Not available.
UV 0 out of 12
Pollen 10.40 out of 12
Air Quality Not available.
Flu Activity Not available.
METAR KCOS 031054Z 35009KT 10SM SCT140 SCT200 19/05 A3008 RMK AO2 SLP087 T01890050
Pressure 29.79 in
Visibility 10.0 miles
Clouds Scattered Clouds 14000 ft
Scattered Clouds 20000 ft
Dew Point 44 °F
Humidity 41%
Rainfall 0.00 in
Snow Depth Not available.
UV 0 out of 12
Pollen 10.40 out of 12
Air Quality Not available.
Flu Activity Not available.
METAR KCOS 031054Z 35009KT 10SM SCT140 SCT200 19/05 A3008 RMK AO2 SLP087 T01890050

10-Day Weather Forecast

×

Almanac

Astronomy

Sep. 03, 2015 Rise Set
Actual Time
Civil Twilight
Nautical Twilight
Astronomical Twilight
Moon
Length of Visible Light
Length of Day
Tomorrow will be .
, % of the Moon is Illuminated

Today's Extremes

State Highs State Lows

Community

WunderPhotos

Upload Photos

1,851,941 photos uploaded!

WunderBlogs® & News

Nearby

Air Quality

  Air Quality AQ Index Pollutant
Not available.

Snow Depth

Station Depth Elevation

Earthquake Activity

City Distance Mag. Time & Date
Minimum magnitude displayed is 2.5.

Coastal Water Temperatures

Place Temperature

Stations

Nearby Weather Stations

Station Location Temp. Windchill Dew Point Humidity Wind Precip. Elev Updated Type